Colesville, New Jersey
Current Conditions -  °F | °C
As of 4:53 PM on Sunday 23 Nov 2014 (Local Time) from KFWN Reporting Station
Clear Clear  
Wind Chill: 47°   Ceiling: Unl
Heat Index: 47°   Visibility: 10mi
Dew Point: 28°   Wind: 0mph
Humidity: 48%   Direction: NA
Pressure: 30.1"   Gusts: NA
Location:  41.2395°N, 74.6087°W
Report Text: KFWN 232153Z AUTO 00000KT 10SM CLR 08/M02 A3010 RMK AO2 SLP196 T00831022
Loading
Personal Weather Stations






























Interactive Weather Map New forecast layout! Learn more

10-Day Weather Forecast

Advertisements
Track Severe Weather on mobile